Time;durP1;ratioP1;P1;durP2;ratioP2;P2;SDS_P1;SDS_P2;PMS_P1;PMS_P2;Temp;Humidity;BMP_temperature;BMP_pressure;BME280_temperature;BME280_humidity;BME280_pressure;Samples;Min_cycle;Max_cycle;Signal;HPM_P1;HPM_P2
2021/12/29 00:00:41;;;;;;;;;;;9.50;99.90;;;;;;5026123;28;19925;-73
2021/12/29 00:03:10;;;;;;;;;;;9.50;99.90;;;;;;5027188;28;20407;-72
2021/12/29 00:05:37;;;;;;;;;;;9.40;99.90;;;;;;5025679;28;19925;-73
2021/12/29 00:08:05;;;;;;;;;;;9.40;99.90;;;;;;5025517;28;19928;-73
2021/12/29 00:10:33;;;;;;;;;;;9.30;99.90;;;;;;5025868;28;19928;-73
2021/12/29 00:13:04;;;;;;;;;;;9.30;99.90;;;;;;5058349;28;19936;-73
2021/12/29 00:15:31;;;;;;;;;;;9.20;99.90;;;;;;5027155;28;19925;-74
2021/12/29 00:17:59;;;;;;;;;;;9.20;99.90;;;;;;5027142;28;19932;-72
2021/12/29 00:20:29;;;;;;;;;;;9.10;99.90;;;;;;5024806;28;19921;-73
2021/12/29 00:22:58;;;;;;;;;;;9.10;99.90;;;;;;5021762;28;19921;-72
2021/12/29 00:25:25;;;;;;;;;;;9.10;99.90;;;;;;5007187;28;20255;-73
2021/12/29 00:27:58;;;;;;;;;;;9.00;99.90;;;;;;5006953;28;19925;-74
2021/12/29 00:30:25;;;;;;;;;;;9.00;99.90;;;;;;5005308;28;19940;-73
2021/12/29 00:32:57;;;;;;;;;;;8.90;99.90;;;;;;5006056;28;20446;-72
2021/12/29 00:35:43;;;;;;;;;;;8.80;99.90;;;;;;5007318;28;19925;-73
2021/12/29 00:38:40;;;;;;;;;;;8.80;99.90;;;;;;4970022;28;19930;-73
2021/12/29 00:41:39;;;;;;;;;;;8.70;99.90;;;;;;4983878;28;19925;-73
2021/12/29 00:44:36;;;;;;;;;;;8.60;99.90;;;;;;5005962;28;19925;-73
2021/12/29 00:47:13;;;;;;;;;;;8.60;99.90;;;;;;5005716;28;20349;-73
2021/12/29 00:49:41;;;;;;;;;;;8.60;99.90;;;;;;5006903;28;19940;-72
2021/12/29 00:52:09;;;;;;;;;;;8.50;99.90;;;;;;5007168;28;19929;-73
2021/12/29 00:54:38;;;;;;;;;;;8.50;99.90;;;;;;5005152;28;20281;-72
2021/12/29 00:57:06;;;;;;;;;;;8.50;99.90;;;;;;5006983;28;19926;-72
2021/12/29 00:59:33;;;;;;;;;;;8.40;99.90;;;;;;5005286;28;20478;-73
2021/12/29 01:02:01;;;;;;;;;;;8.40;99.90;;;;;;5005394;28;20263;-73
2021/12/29 01:04:28;;;;;;;;;;;8.40;99.90;;;;;;5005013;28;19921;-74
2021/12/29 01:06:56;;;;;;;;;;;8.40;99.90;;;;;;5005455;28;20279;-74
2021/12/29 01:09:23;;;;;;;;;;;8.40;99.90;;;;;;5006646;28;20485;-73
2021/12/29 01:11:55;;;;;;;;;;;8.40;99.90;;;;;;5007048;28;20024;-74
2021/12/29 01:14:25;;;;;;;;;;;8.40;99.90;;;;;;5006410;28;19925;-74
2021/12/29 01:16:53;;;;;;;;;;;8.40;99.90;;;;;;5006482;28;20582;-73
2021/12/29 01:19:28;;;;;;;;;;;8.30;99.90;;;;;;5005592;28;19929;-73
2021/12/29 01:21:57;;;;;;;;;;;8.30;99.90;;;;;;5006911;28;19937;-73
2021/12/29 01:24:26;;;;;;;;;;;8.30;99.90;;;;;;5006695;28;20289;-74
2021/12/29 01:26:54;;;;;;;;;;;8.30;99.90;;;;;;5006748;28;19921;-73
2021/12/29 01:29:23;;;;;;;;;;;8.30;99.90;;;;;;5006388;28;19926;-73
2021/12/29 01:31:50;;;;;;;;;;;8.20;99.90;;;;;;5006308;28;19929;-74
2021/12/29 01:34:18;;;;;;;;;;;8.20;99.90;;;;;;5008470;28;19933;-73
2021/12/29 01:36:46;;;;;;;;;;;8.20;99.90;;;;;;5016834;28;19996;-73
2021/12/29 01:39:14;;;;;;;;;;;8.20;99.90;;;;;;5027565;28;20329;-73
2021/12/29 01:41:44;;;;;;;;;;;8.20;99.90;;;;;;5010431;28;19932;-73
2021/12/29 01:44:12;;;;;;;;;;;8.20;99.90;;;;;;5009957;28;20386;-73
2021/12/29 01:46:40;;;;;;;;;;;8.10;99.90;;;;;;5008617;28;19925;-73
2021/12/29 01:49:08;;;;;;;;;;;8.10;99.90;;;;;;5010318;28;19967;-73
2021/12/29 01:51:38;;;;;;;;;;;8.10;99.90;;;;;;5008655;28;19925;-73
2021/12/29 01:54:16;;;;;;;;;;;8.10;99.90;;;;;;5019585;28;19932;-72
2021/12/29 01:56:44;;;;;;;;;;;8.10;99.90;;;;;;5029828;28;19928;-72
2021/12/29 01:59:13;;;;;;;;;;;8.00;99.90;;;;;;5012032;28;20757;-73
2021/12/29 02:01:41;;;;;;;;;;;8.10;99.90;;;;;;5029264;28;19928;-73
2021/12/29 02:04:09;;;;;;;;;;;8.00;99.90;;;;;;5008171;28;19926;-73
2021/12/29 02:06:37;;;;;;;;;;;8.00;99.90;;;;;;5008240;28;19922;-73
2021/12/29 02:09:04;;;;;;;;;;;8.00;99.90;;;;;;5023553;28;19948;-72
2021/12/29 02:11:37;;;;;;;;;;;8.00;99.90;;;;;;5011631;28;19925;-73
2021/12/29 02:14:06;;;;;;;;;;;8.00;99.90;;;;;;5008145;28;19933;-73
2021/12/29 02:16:34;;;;;;;;;;;8.00;99.90;;;;;;5009331;28;19928;-72
2021/12/29 02:19:05;;;;;;;;;;;8.10;99.90;;;;;;5009528;28;19922;-73
2021/12/29 02:21:33;;;;;;;;;;;8.10;99.90;;;;;;5022371;28;19928;-73
2021/12/29 02:26:29;;;;;;;;;;;8.10;99.90;;;;;;5016960;28;20349;-73
2021/12/29 02:28:57;;;;;;;;;;;8.10;99.90;;;;;;5029511;28;19925;-73
2021/12/29 02:31:24;;;;;;;;;;;8.10;99.90;;;;;;5029326;28;19925;-73
2021/12/29 02:33:52;;;;;;;;;;;8.10;99.90;;;;;;5029581;28;20330;-73
2021/12/29 02:36:21;;;;;;;;;;;8.00;99.90;;;;;;5028020;28;19936;-73
2021/12/29 02:38:52;;;;;;;;;;;8.10;99.90;;;;;;5028491;28;19928;-73
2021/12/29 02:41:22;;;;;;;;;;;8.00;99.90;;;;;;5008593;28;20743;-73
2021/12/29 02:43:57;;;;;;;;;;;8.00;99.90;;;;;;5008530;28;19925;-74
2021/12/29 02:46:25;;;;;;;;;;;8.00;99.90;;;;;;5008134;28;19926;-73
2021/12/29 02:48:58;;;;;;;;;;;7.90;99.90;;;;;;5041462;28;19925;-73
2021/12/29 02:51:27;;;;;;;;;;;7.90;99.90;;;;;;5008264;28;19925;-73
2021/12/29 02:53:55;;;;;;;;;;;7.80;99.90;;;;;;5009788;28;19922;-73
2021/12/29 02:56:23;;;;;;;;;;;7.70;99.90;;;;;;5009660;28;20302;-73
2021/12/29 02:58:51;;;;;;;;;;;7.70;99.90;;;;;;5008051;28;19932;-72
2021/12/29 03:01:19;;;;;;;;;;;7.70;99.90;;;;;;5009538;28;19933;-71
2021/12/29 03:03:46;;;;;;;;;;;7.60;99.90;;;;;;5008101;28;19948;-72
2021/12/29 03:06:14;;;;;;;;;;;7.50;99.90;;;;;;5008024;28;19925;-72
2021/12/29 03:08:42;;;;;;;;;;;7.50;99.90;;;;;;5009061;28;19932;-72
2021/12/29 03:11:10;;;;;;;;;;;7.50;99.90;;;;;;5027879;28;19950;-72
2021/12/29 03:13:38;;;;;;;;;;;7.50;99.90;;;;;;5029157;28;19936;-73
2021/12/29 03:16:07;;;;;;;;;;;7.50;99.90;;;;;;5029184;28;20320;-72
2021/12/29 03:18:34;;;;;;;;;;;7.40;99.90;;;;;;5028734;28;20396;-72
2021/12/29 03:21:02;;;;;;;;;;;7.50;99.90;;;;;;5028976;28;20413;-73
2021/12/29 03:23:31;;;;;;;;;;;7.50;99.90;;;;;;5028441;28;20404;-72
2021/12/29 03:25:59;;;;;;;;;;;7.50;99.90;;;;;;5028780;28;19928;-72
2021/12/29 03:28:26;;;;;;;;;;;7.50;99.90;;;;;;5010550;28;19924;-72
2021/12/29 03:30:56;;;;;;;;;;;7.60;99.90;;;;;;5026444;28;19921;-71
2021/12/29 03:33:24;;;;;;;;;;;7.60;99.90;;;;;;5028382;28;19928;-72
2021/12/29 03:35:57;;;;;;;;;;;7.60;99.90;;;;;;5028115;28;20424;-72
2021/12/29 03:38:25;;;;;;;;;;;7.70;99.90;;;;;;5009593;28;19940;-72
2021/12/29 03:40:53;;;;;;;;;;;7.80;99.90;;;;;;5056497;28;19925;-73
2021/12/29 03:43:21;;;;;;;;;;;7.80;99.90;;;;;;5060106;28;19929;-72
2021/12/29 03:45:50;;;;;;;;;;;7.80;99.90;;;;;;5028761;28;20263;-73
2021/12/29 03:48:18;;;;;;;;;;;7.80;99.90;;;;;;5028257;28;19925;-73
2021/12/29 03:50:46;;;;;;;;;;;7.90;99.90;;;;;;5027074;28;19948;-73
2021/12/29 03:53:15;;;;;;;;;;;8.00;99.90;;;;;;5021421;28;19948;-73
2021/12/29 03:55:43;;;;;;;;;;;8.00;99.90;;;;;;5003074;28;19952;-73
2021/12/29 03:58:11;;;;;;;;;;;8.10;99.90;;;;;;5007989;28;19925;-73
2021/12/29 04:00:39;;;;;;;;;;;8.10;99.90;;;;;;5007174;28;19944;-73
2021/12/29 04:03:06;;;;;;;;;;;8.10;99.90;;;;;;5007139;28;19932;-73
2021/12/29 04:05:34;;;;;;;;;;;8.20;99.90;;;;;;5017312;28;19944;-73
2021/12/29 04:08:02;;;;;;;;;;;8.20;99.90;;;;;;5027494;28;20400;-72
2021/12/29 04:10:30;;;;;;;;;;;8.20;99.90;;;;;;5026265;28;19924;-73
2021/12/29 04:12:58;;;;;;;;;;;8.30;99.90;;;;;;5026644;28;19925;-73
2021/12/29 04:15:27;;;;;;;;;;;8.30;99.90;;;;;;5059139;28;19924;-73
2021/12/29 04:17:58;;;;;;;;;;;8.30;99.90;;;;;;5027258;28;19925;-72
2021/12/29 04:23:17;;;;;;;;;;;8.40;99.90;;;;;;5007489;28;20326;-73
2021/12/29 04:25:48;;;;;;;;;;;8.40;99.90;;;;;;5007309;28;19932;-73
2021/12/29 04:28:20;;;;;;;;;;;8.40;99.90;;;;;;5007592;28;19932;-73
2021/12/29 04:30:48;;;;;;;;;;;8.40;99.90;;;;;;5007497;28;19926;-73
2021/12/29 04:33:16;;;;;;;;;;;8.50;99.90;;;;;;5019684;28;20412;-72
2021/12/29 04:35:45;;;;;;;;;;;8.50;99.90;;;;;;5007241;28;19921;-72
2021/12/29 04:38:12;;;;;;;;;;;8.50;99.90;;;;;;5012201;28;19929;-73
2021/12/29 04:40:40;;;;;;;;;;;8.50;99.90;;;;;;5026950;28;20269;-73
2021/12/29 04:43:08;;;;;;;;;;;8.50;99.90;;;;;;5025842;28;20382;-73
2021/12/29 04:45:36;;;;;;;;;;;8.60;99.90;;;;;;5058430;28;20301;-73
2021/12/29 04:48:11;;;;;;;;;;;8.60;99.90;;;;;;5025447;28;19932;-73
2021/12/29 04:50:40;;;;;;;;;;;8.60;99.90;;;;;;5026950;28;19936;-72
2021/12/29 04:53:08;;;;;;;;;;;8.60;99.90;;;;;;5025228;28;20024;-72
2021/12/29 04:55:36;;;;;;;;;;;8.60;99.90;;;;;;5026572;28;20380;-73
2021/12/29 04:58:04;;;;;;;;;;;8.60;99.90;;;;;;5026593;28;20058;-72
2021/12/29 05:00:31;;;;;;;;;;;8.60;99.90;;;;;;5025759;28;19925;-72
2021/12/29 05:02:59;;;;;;;;;;;8.60;99.90;;;;;;5025313;28;19940;-72
2021/12/29 05:10:46;;;;;;;;;;;8.70;99.90;;;;;;5025564;28;19939;-72
2021/12/29 05:13:15;;;;;;;;;;;8.70;99.90;;;;;;5026818;28;19931;-72
2021/12/29 05:15:42;;;;;;;;;;;8.70;99.90;;;;;;5025782;28;19940;-72
2021/12/29 05:18:10;;;;;;;;;;;8.70;99.90;;;;;;5058791;28;19932;-72
2021/12/29 05:20:38;;;;;;;;;;;8.70;99.90;;;;;;5027112;28;19925;-72
2021/12/29 05:23:05;;;;;;;;;;;8.70;99.90;;;;;;5027014;28;19921;-73
2021/12/29 05:25:33;;;;;;;;;;;8.70;99.90;;;;;;5026296;28;19929;-73
2021/12/29 05:28:00;;;;;;;;;;;8.70;99.90;;;;;;5025724;28;20381;-72
2021/12/29 05:30:28;;;;;;;;;;;8.70;99.90;;;;;;5026788;28;20353;-72
2021/12/29 05:32:56;;;;;;;;;;;8.70;99.90;;;;;;5026927;28;20377;-73
2021/12/29 05:35:27;;;;;;;;;;;8.70;99.90;;;;;;5027085;28;19932;-72
2021/12/29 05:37:55;;;;;;;;;;;8.70;99.90;;;;;;5024224;28;19936;-73
2021/12/29 05:40:23;;;;;;;;;;;8.70;99.90;;;;;;5006500;28;19932;-72
2021/12/29 05:42:51;;;;;;;;;;;8.80;99.90;;;;;;5005846;28;19925;-73
2021/12/29 05:45:19;;;;;;;;;;;8.70;99.90;;;;;;5007159;28;19921;-73
2021/12/29 05:47:47;;;;;;;;;;;8.80;99.90;;;;;;5018093;28;19925;-73
2021/12/29 05:50:17;;;;;;;;;;;8.70;99.90;;;;;;5025463;28;19925;-73
2021/12/29 05:52:44;;;;;;;;;;;8.80;99.90;;;;;;5024159;28;19925;-73
2021/12/29 05:55:12;;;;;;;;;;;8.80;99.90;;;;;;5025571;28;19924;-72
2021/12/29 05:57:40;;;;;;;;;;;8.70;99.90;;;;;;5025782;28;20365;-72
2021/12/29 06:00:09;;;;;;;;;;;8.80;99.90;;;;;;5024470;28;19925;-72
2021/12/29 06:02:37;;;;;;;;;;;8.80;99.90;;;;;;5024253;28;19925;-72
2021/12/29 06:05:06;;;;;;;;;;;8.80;99.90;;;;;;5025146;28;19921;-74
2021/12/29 06:07:35;;;;;;;;;;;8.80;99.90;;;;;;5023971;28;19944;-74
2021/12/29 06:10:03;;;;;;;;;;;8.90;99.90;;;;;;5024506;28;19928;-72
2021/12/29 06:12:35;;;;;;;;;;;8.90;99.90;;;;;;5024361;28;19925;-73
2021/12/29 06:15:04;;;;;;;;;;;8.90;99.90;;;;;;5026119;28;19932;-73
2021/12/29 06:17:31;;;;;;;;;;;8.90;99.90;;;;;;5024408;28;19932;-71
2021/12/29 06:19:59;;;;;;;;;;;8.90;99.90;;;;;;5028995;28;19921;-73
2021/12/29 06:22:26;;;;;;;;;;;8.90;99.90;;;;;;5029798;28;20277;-73
2021/12/29 06:24:54;;;;;;;;;;;8.90;99.90;;;;;;5028417;28;19925;-73
2021/12/29 06:27:22;;;;;;;;;;;8.90;99.90;;;;;;5012169;28;19925;-73
2021/12/29 06:29:50;;;;;;;;;;;8.90;99.90;;;;;;5028021;28;19931;-73
2021/12/29 06:32:18;;;;;;;;;;;8.90;99.90;;;;;;5029008;28;19932;-73
2021/12/29 06:34:45;;;;;;;;;;;8.90;99.90;;;;;;5029226;28;19928;-73
2021/12/29 06:37:13;;;;;;;;;;;8.90;99.90;;;;;;5027245;28;20315;-72
2021/12/29 06:39:42;;;;;;;;;;;8.90;99.90;;;;;;5027253;28;19925;-72
2021/12/29 06:42:10;;;;;;;;;;;8.90;99.90;;;;;;5029434;28;19931;-72
2021/12/29 06:44:38;;;;;;;;;;;8.90;99.90;;;;;;5028977;28;19925;-72
2021/12/29 06:47:05;;;;;;;;;;;8.90;99.90;;;;;;5060750;28;19921;-73
2021/12/29 06:49:34;;;;;;;;;;;8.90;99.90;;;;;;5028633;28;20368;-73
2021/12/29 06:52:02;;;;;;;;;;;8.80;99.90;;;;;;5028641;28;19925;-73
2021/12/29 06:54:30;;;;;;;;;;;8.80;99.90;;;;;;5028910;28;19932;-73
2021/12/29 06:56:58;;;;;;;;;;;8.80;99.90;;;;;;5027261;28;19925;-72
2021/12/29 06:59:26;;;;;;;;;;;8.80;99.90;;;;;;5028577;28;19925;-73
2021/12/29 07:01:54;;;;;;;;;;;8.80;99.90;;;;;;5028619;28;20356;-73
2021/12/29 07:04:25;;;;;;;;;;;8.80;99.90;;;;;;5011190;28;19925;-72
2021/12/29 07:06:53;;;;;;;;;;;8.80;99.90;;;;;;5028557;28;19929;-72
2021/12/29 07:09:21;;;;;;;;;;;8.80;99.90;;;;;;5028291;28;19921;-72
2021/12/29 07:11:50;;;;;;;;;;;8.80;99.90;;;;;;5021891;28;19924;-72
2021/12/29 07:14:19;;;;;;;;;;;8.80;99.90;;;;;;5021508;28;19933;-72
2021/12/29 07:16:48;;;;;;;;;;;8.80;99.90;;;;;;5020075;28;20293;-72
2021/12/29 07:19:16;;;;;;;;;;;8.80;99.90;;;;;;5024053;28;19928;-72
2021/12/29 07:21:45;;;;;;;;;;;8.80;99.90;;;;;;5021551;28;19925;-72
2021/12/29 07:24:12;;;;;;;;;;;8.80;99.90;;;;;;5059803;28;19925;-72
2021/12/29 07:26:40;;;;;;;;;;;8.80;99.90;;;;;;5028354;28;19925;-72
2021/12/29 07:29:08;;;;;;;;;;;8.90;99.90;;;;;;5026376;28;20043;-71
2021/12/29 07:31:36;;;;;;;;;;;8.90;99.90;;;;;;5026424;28;20019;-72
2021/12/29 07:34:20;;;;;;;;;;;8.90;99.90;;;;;;5028393;28;19928;-72
2021/12/29 07:36:47;;;;;;;;;;;8.90;99.90;;;;;;5024104;28;19968;-72
2021/12/29 07:39:15;;;;;;;;;;;9.00;99.90;;;;;;5047819;28;19921;-72
2021/12/29 07:41:44;;;;;;;;;;;9.00;99.90;;;;;;5026710;28;19932;-73
2021/12/29 07:44:18;;;;;;;;;;;9.00;99.90;;;;;;5052692;28;19931;-72
2021/12/29 07:46:48;;;;;;;;;;;9.00;99.90;;;;;;5027421;28;19929;-72
2021/12/29 07:49:16;;;;;;;;;;;9.10;99.90;;;;;;5026356;28;19932;-73
2021/12/29 07:51:44;;;;;;;;;;;9.10;99.90;;;;;;5059153;28;20366;-72
2021/12/29 07:54:14;;;;;;;;;;;9.10;99.90;;;;;;5026088;28;20084;-72
2021/12/29 07:56:42;;;;;;;;;;;9.20;99.90;;;;;;5028224;28;19924;-72
2021/12/29 07:59:10;;;;;;;;;;;9.20;99.90;;;;;;5025843;28;20381;-73
2021/12/29 08:01:41;;;;;;;;;;;9.20;99.90;;;;;;5028166;28;19925;-71
2021/12/29 08:04:10;;;;;;;;;;;9.20;99.90;;;;;;5028455;28;19924;-72
2021/12/29 08:06:37;;;;;;;;;;;9.30;99.90;;;;;;5018201;28;20382;-72
2021/12/29 08:09:07;;;;;;;;;;;9.30;99.90;;;;;;5007711;28;20297;-72
2021/12/29 08:11:35;;;;;;;;;;;9.30;99.90;;;;;;5041978;28;20293;-72
2021/12/29 08:14:02;;;;;;;;;;;9.30;99.90;;;;;;5025544;28;19952;-72
2021/12/29 08:16:29;;;;;;;;;;;9.40;99.90;;;;;;5050923;28;19925;-72
2021/12/29 08:18:57;;;;;;;;;;;9.40;99.90;;;;;;5051572;28;19932;-72
2021/12/29 08:21:24;;;;;;;;;;;9.40;99.90;;;;;;5021109;28;19925;-73
2021/12/29 08:23:52;;;;;;;;;;;9.50;99.90;;;;;;5020984;28;20445;-71
2021/12/29 08:26:21;;;;;;;;;;;9.50;99.90;;;;;;5023200;28;20434;-72
2021/12/29 08:28:50;;;;;;;;;;;9.50;99.90;;;;;;5022665;28;19925;-72
2021/12/29 08:31:18;;;;;;;;;;;9.60;99.90;;;;;;5025153;28;19925;-73
2021/12/29 08:33:45;;;;;;;;;;;9.60;99.90;;;;;;5013615;28;20301;-73
2021/12/29 08:36:13;;;;;;;;;;;9.60;99.90;;;;;;5010180;28;20300;-72
2021/12/29 08:38:40;;;;;;;;;;;9.60;99.90;;;;;;5024567;28;19921;-72
2021/12/29 08:41:10;;;;;;;;;;;9.70;99.90;;;;;;5023913;28;19931;-72
2021/12/29 08:43:38;;;;;;;;;;;9.70;99.90;;;;;;5024387;28;20407;-72
2021/12/29 08:46:06;;;;;;;;;;;9.70;99.90;;;;;;4991162;28;20372;-72
2021/12/29 08:48:35;;;;;;;;;;;9.80;99.90;;;;;;5024450;28;19936;-72
2021/12/29 08:51:03;;;;;;;;;;;9.80;99.90;;;;;;5039477;28;19925;-74
2021/12/29 08:53:31;;;;;;;;;;;9.80;99.90;;;;;;5039135;28;19925;-71
2021/12/29 08:55:59;;;;;;;;;;;9.80;99.90;;;;;;5013867;28;19929;-72
2021/12/29 08:58:26;;;;;;;;;;;9.90;99.90;;;;;;5039741;28;19933;-72
2021/12/29 09:00:55;;;;;;;;;;;9.90;99.90;;;;;;5004643;28;19929;-71
2021/12/29 09:03:22;;;;;;;;;;;9.90;99.90;;;;;;5053885;28;19931;-72
2021/12/29 09:05:50;;;;;;;;;;;9.90;99.90;;;;;;5056923;28;20370;-72
2021/12/29 09:08:18;;;;;;;;;;;10.00;99.90;;;;;;5057818;28;19931;-72
2021/12/29 09:10:45;;;;;;;;;;;10.00;99.90;;;;;;5024755;28;19921;-72
2021/12/29 09:13:14;;;;;;;;;;;10.10;99.90;;;;;;5022879;28;19921;-72
2021/12/29 09:15:42;;;;;;;;;;;10.10;99.90;;;;;;5038466;28;19925;-71
2021/12/29 09:18:10;;;;;;;;;;;10.20;99.90;;;;;;5005223;28;19925;-72
2021/12/29 09:20:45;;;;;;;;;;;10.20;99.90;;;;;;5025407;28;19932;-73
2021/12/29 09:23:14;;;;;;;;;;;10.30;99.90;;;;;;5013598;28;19948;-77
2021/12/29 09:25:43;;;;;;;;;;;10.30;99.90;;;;;;5020644;28;19925;-76
2021/12/29 09:28:12;;;;;;;;;;;10.30;99.90;;;;;;5015505;28;20306;-78
2021/12/29 09:30:40;;;;;;;;;;;10.40;99.90;;;;;;5032937;28;20314;-77
2021/12/29 09:33:09;;;;;;;;;;;10.40;99.90;;;;;;5024066;28;19925;-77
2021/12/29 09:35:37;;;;;;;;;;;10.40;99.90;;;;;;5023576;28;19932;-75
2021/12/29 09:38:05;;;;;;;;;;;10.50;99.90;;;;;;5021895;28;19929;-74
2021/12/29 09:40:33;;;;;;;;;;;10.50;99.90;;;;;;5035549;28;19929;-75
2021/12/29 09:43:12;;;;;;;;;;;10.50;99.90;;;;;;5020654;28;19956;-75
2021/12/29 09:45:40;;;;;;;;;;;10.50;99.90;;;;;;5007004;28;20382;-75
2021/12/29 09:48:08;;;;;;;;;;;10.60;99.90;;;;;;5020322;28;19957;-74
2021/12/29 09:50:36;;;;;;;;;;;10.50;99.90;;;;;;5006137;28;20326;-74
2021/12/29 09:53:04;;;;;;;;;;;10.60;99.90;;;;;;5021054;28;20365;-74
2021/12/29 09:55:31;;;;;;;;;;;10.60;99.90;;;;;;5009129;28;19926;-75
2021/12/29 09:58:00;;;;;;;;;;;10.60;99.90;;;;;;5027855;28;19925;-75
2021/12/29 10:00:31;;;;;;;;;;;10.70;99.90;;;;;;5025960;28;19925;-73
2021/12/29 10:03:01;;;;;;;;;;;10.70;99.90;;;;;;5007431;28;19921;-72
2021/12/29 10:05:30;;;;;;;;;;;10.80;99.90;;;;;;5027434;28;19932;-71
2021/12/29 10:08:00;;;;;;;;;;;10.80;99.90;;;;;;5028887;28;19925;-72
2021/12/29 10:10:29;;;;;;;;;;;10.90;99.90;;;;;;5019432;28;19927;-72
2021/12/29 10:12:57;;;;;;;;;;;10.90;99.90;;;;;;5027891;28;19932;-72
2021/12/29 10:15:27;;;;;;;;;;;11.00;99.90;;;;;;5024046;28;19922;-72
2021/12/29 10:18:02;;;;;;;;;;;11.00;99.90;;;;;;5027363;28;19932;-72
2021/12/29 10:20:30;;;;;;;;;;;11.10;99.90;;;;;;5021961;28;19999;-71
2021/12/29 10:22:58;;;;;;;;;;;11.20;99.90;;;;;;5021547;28;20402;-72
2021/12/29 10:25:34;;;;;;;;;;;11.20;99.90;;;;;;5016436;28;19925;-72
2021/12/29 10:28:01;;;;;;;;;;;11.30;99.90;;;;;;5020767;28;19925;-72
2021/12/29 10:30:30;;;;;;;;;;;11.30;99.90;;;;;;5022094;28;19921;-73
2021/12/29 10:33:09;;;;;;;;;;;11.30;99.90;;;;;;5025961;28;19925;-72
2021/12/29 10:35:36;;;;;;;;;;;11.40;99.90;;;;;;5036298;28;20289;-72
2021/12/29 10:38:13;;;;;;;;;;;11.40;99.90;;;;;;5008836;28;19922;-73
2021/12/29 10:40:41;;;;;;;;;;;11.50;99.90;;;;;;5018760;28;19940;-73
2021/12/29 10:43:09;;;;;;;;;;;11.50;99.90;;;;;;5006268;28;20436;-72
2021/12/29 10:45:39;;;;;;;;;;;11.50;99.90;;;;;;5015274;28;19921;-72
2021/12/29 10:48:21;;;;;;;;;;;11.60;99.90;;;;;;5040018;28;20591;-72
2021/12/29 10:51:00;;;;;;;;;;;11.70;99.90;;;;;;5019416;28;19929;-72
2021/12/29 10:53:29;;;;;;;;;;;11.80;99.90;;;;;;5027227;28;19924;-72
2021/12/29 10:55:56;;;;;;;;;;;11.90;99.90;;;;;;5028562;28;19924;-72
2021/12/29 10:58:25;;;;;;;;;;;11.90;99.90;;;;;;5028173;28;20306;-72
2021/12/29 11:01:11;;;;;;;;;;;12.00;99.90;;;;;;5023181;28;19925;-73
2021/12/29 11:03:58;;;;;;;;;;;12.10;99.90;;;;;;5009219;28;19925;-76
2021/12/29 11:06:26;;;;;;;;;;;12.30;99.90;;;;;;5009177;28;20379;-74
2021/12/29 11:08:55;;;;;;;;;;;12.40;99.90;;;;;;5008880;28;19922;-72
2021/12/29 11:11:32;;;;;;;;;;;12.50;99.90;;;;;;5006960;28;19925;-73
2021/12/29 11:14:10;;;;;;;;;;;12.60;99.90;;;;;;5010860;28;20313;-72
2021/12/29 11:16:39;;;;;;;;;;;12.60;99.90;;;;;;5027506;28;20320;-74
2021/12/29 11:19:07;;;;;;;;;;;12.60;99.90;;;;;;5040081;28;19925;-73
2021/12/29 11:21:40;;;;;;;;;;;12.70;99.90;;;;;;5009270;28;19925;-73
2021/12/29 11:24:25;;;;;;;;;;;12.80;99.90;;;;;;5007843;28;19933;-72
2021/12/29 11:26:53;;;;;;;;;;;12.90;99.90;;;;;;5040519;28;19925;-73
2021/12/29 11:29:21;;;;;;;;;;;13.00;99.90;;;;;;5008495;28;19925;-73
2021/12/29 11:31:51;;;;;;;;;;;13.10;99.90;;;;;;5016144;28;19928;-73
2021/12/29 11:34:28;;;;;;;;;;;13.10;99.90;;;;;;5042187;28;19929;-74
2021/12/29 11:37:00;;;;;;;;;;;13.20;99.90;;;;;;5025993;28;19929;-73
2021/12/29 11:39:29;;;;;;;;;;;13.20;99.90;;;;;;5026443;28;19924;-74
2021/12/29 11:41:56;;;;;;;;;;;13.30;99.90;;;;;;5021847;28;19932;-73
2021/12/29 11:44:24;;;;;;;;;;;13.40;99.90;;;;;;5007050;28;19922;-73
2021/12/29 11:46:52;;;;;;;;;;;13.40;99.90;;;;;;5037792;28;19933;-73
2021/12/29 11:49:20;;;;;;;;;;;13.50;99.90;;;;;;5006623;28;19926;-73
2021/12/29 11:51:55;;;;;;;;;;;13.50;99.90;;;;;;5021603;28;19922;-72
2021/12/29 11:54:49;;;;;;;;;;;13.60;99.90;;;;;;5021663;28;20366;-75
2021/12/29 11:57:20;;;;;;;;;;;13.60;99.90;;;;;;5006356;28;19925;-72
2021/12/29 11:59:48;;;;;;;;;;;13.70;99.90;;;;;;5006542;28;19925;-73
2021/12/29 12:02:26;;;;;;;;;;;13.70;99.90;;;;;;5037997;28;19944;-72
2021/12/29 12:05:03;;;;;;;;;;;13.70;99.90;;;;;;5006673;28;20396;-72
2021/12/29 12:07:30;;;;;;;;;;;13.80;99.90;;;;;;5007862;28;19921;-72
2021/12/29 12:10:01;;;;;;;;;;;13.80;99.90;;;;;;5010592;28;19925;-73
2021/12/29 12:12:36;;;;;;;;;;;13.90;99.90;;;;;;5024508;28;20435;-72
2021/12/29 12:15:07;;;;;;;;;;;13.90;99.90;;;;;;5026145;28;19921;-73
2021/12/29 12:17:35;;;;;;;;;;;14.00;99.90;;;;;;5056858;28;19925;-73
2021/12/29 12:20:11;;;;;;;;;;;14.10;99.90;;;;;;5020486;28;19926;-73
2021/12/29 12:22:43;;;;;;;;;;;14.20;99.90;;;;;;5008471;28;19944;-73
2021/12/29 12:25:10;;;;;;;;;;;14.30;99.90;;;;;;5018973;28;20275;-73
2021/12/29 12:27:42;;;;;;;;;;;14.30;99.90;;;;;;5024007;28;19925;-73
2021/12/29 12:30:20;;;;;;;;;;;14.40;99.90;;;;;;5026726;28;19925;-73
2021/12/29 12:32:56;;;;;;;;;;;14.50;99.90;;;;;;5030867;28;19932;-73
2021/12/29 12:35:31;;;;;;;;;;;14.60;99.90;;;;;;5007413;28;19932;-73
2021/12/29 12:37:59;;;;;;;;;;;14.60;99.90;;;;;;5006283;28;19961;-73
2021/12/29 12:40:31;;;;;;;;;;;14.60;99.90;;;;;;5009887;28;19933;-73
2021/12/29 12:43:10;;;;;;;;;;;14.60;99.90;;;;;;5005602;28;19988;-73
2021/12/29 12:45:39;;;;;;;;;;;14.70;99.90;;;;;;5013512;28;20313;-71
2021/12/29 12:48:08;;;;;;;;;;;14.80;99.90;;;;;;5015156;28;19922;-73
2021/12/29 12:50:36;;;;;;;;;;;14.80;99.90;;;;;;5017149;28;19929;-73
2021/12/29 12:53:04;;;;;;;;;;;14.90;99.90;;;;;;5058600;28;19929;-73
2021/12/29 12:55:44;;;;;;;;;;;14.90;99.90;;;;;;5012178;28;19932;-73
2021/12/29 12:58:12;;;;;;;;;;;14.90;99.90;;;;;;5006161;28;19932;-72
2021/12/29 13:00:47;;;;;;;;;;;14.90;99.90;;;;;;5019619;28;19925;-72
2021/12/29 13:03:17;;;;;;;;;;;14.90;99.90;;;;;;5011019;28;20370;-73
2021/12/29 13:05:48;;;;;;;;;;;14.90;99.90;;;;;;5048276;28;19921;-73
2021/12/29 13:08:21;;;;;;;;;;;14.90;99.90;;;;;;5052344;28;19928;-73
2021/12/29 13:10:51;;;;;;;;;;;14.90;99.90;;;;;;5036986;28;19933;-73
2021/12/29 13:13:23;;;;;;;;;;;15.00;99.90;;;;;;5005909;28;19928;-72
2021/12/29 13:15:56;;;;;;;;;;;15.00;99.90;;;;;;5006404;28;19921;-73
2021/12/29 13:18:24;;;;;;;;;;;15.10;99.90;;;;;;5005242;28;20274;-72
2021/12/29 13:20:59;;;;;;;;;;;15.10;99.90;;;;;;5005868;28;20397;-73
2021/12/29 13:23:27;;;;;;;;;;;15.10;99.90;;;;;;5005876;28;19925;-73
2021/12/29 13:25:56;;;;;;;;;;;15.10;99.90;;;;;;5005948;28;19932;-72
2021/12/29 13:28:25;;;;;;;;;;;15.10;99.90;;;;;;5006505;28;20369;-72
2021/12/29 13:30:55;;;;;;;;;;;15.10;99.90;;;;;;5037454;28;19937;-72
2021/12/29 13:33:24;;;;;;;;;;;15.10;99.90;;;;;;5005333;28;19932;-72
2021/12/29 13:35:52;;;;;;;;;;;15.10;99.90;;;;;;5005891;28;19928;-72
2021/12/29 13:38:20;;;;;;;;;;;15.10;99.90;;;;;;5004485;28;19925;-72
2021/12/29 13:40:49;;;;;;;;;;;15.00;99.90;;;;;;5011674;28;19925;-72
2021/12/29 13:43:18;;;;;;;;;;;15.00;99.90;;;;;;5023506;28;20270;-72
2021/12/29 13:45:47;;;;;;;;;;;15.00;99.90;;;;;;5023773;28;19936;-72
2021/12/29 13:48:17;;;;;;;;;;;14.90;99.90;;;;;;5024221;28;19928;-72
2021/12/29 13:50:55;;;;;;;;;;;14.90;99.90;;;;;;5025395;28;19932;-73
2021/12/29 13:53:24;;;;;;;;;;;14.90;99.90;;;;;;5024069;28;20373;-72
2021/12/29 13:55:52;;;;;;;;;;;14.90;99.90;;;;;;5025156;28;19928;-73
2021/12/29 13:58:20;;;;;;;;;;;14.80;99.90;;;;;;5023633;28;20317;-73
2021/12/29 14:00:47;;;;;;;;;;;14.90;99.90;;;;;;5024121;28;20258;-73
2021/12/29 14:03:16;;;;;;;;;;;14.90;99.90;;;;;;5040337;28;19921;-73
2021/12/29 14:05:46;;;;;;;;;;;15.00;99.90;;;;;;5025420;28;20460;-73
2021/12/29 14:08:15;;;;;;;;;;;15.00;99.90;;;;;;5024971;28;20305;-72
2021/12/29 14:10:45;;;;;;;;;;;15.00;99.90;;;;;;5014467;28;19921;-73
2021/12/29 14:13:14;;;;;;;;;;;15.10;99.90;;;;;;5012752;28;19925;-73
2021/12/29 14:15:42;;;;;;;;;;;15.10;99.90;;;;;;5032198;28;19995;-73
2021/12/29 14:18:21;;;;;;;;;;;15.20;99.90;;;;;;5016766;28;20385;-73
2021/12/29 14:20:51;;;;;;;;;;;15.20;99.90;;;;;;5015710;28;19925;-73
2021/12/29 14:23:20;;;;;;;;;;;15.20;99.90;;;;;;5014923;28;19925;-73
2021/12/29 14:25:48;;;;;;;;;;;15.20;99.90;;;;;;5043624;28;20042;-73
2021/12/29 14:28:17;;;;;;;;;;;15.20;99.90;;;;;;5002230;28;19933;-73
2021/12/29 14:31:04;;;;;;;;;;;15.20;99.90;;;;;;5004731;28;20323;-73
2021/12/29 14:33:39;;;;;;;;;;;15.20;99.90;;;;;;5005370;28;19925;-73
2021/12/29 14:36:08;;;;;;;;;;;15.10;99.90;;;;;;5004574;28;19929;-73
2021/12/29 14:38:36;;;;;;;;;;;15.10;99.90;;;;;;5005665;28;20366;-73
2021/12/29 14:41:04;;;;;;;;;;;15.10;99.90;;;;;;5007895;28;20687;-74
2021/12/29 14:43:31;;;;;;;;;;;15.10;99.90;;;;;;5026373;28;19932;-73
2021/12/29 14:46:01;;;;;;;;;;;15.00;99.90;;;;;;5027348;28;19925;-73
2021/12/29 14:48:29;;;;;;;;;;;15.00;99.90;;;;;;5027088;28;19932;-73
2021/12/29 14:50:57;;;;;;;;;;;15.00;99.90;;;;;;5028556;28;19931;-72